createdAt,value
2023-02-13T06:32:56.256Z,84.54
2023-02-13T06:35:23.900Z,84.55
2023-02-13T06:37:51.083Z,84.38
2023-02-13T06:40:20.613Z,84.24
2023-02-13T06:42:48.102Z,84.04
2023-02-13T06:45:15.606Z,83.39
2023-02-13T06:47:43.802Z,83.05
2023-02-13T06:50:11.117Z,82.80
2023-02-13T06:52:38.597Z,82.72
2023-02-13T06:55:07.056Z,82.81
2023-02-13T06:57:34.380Z,82.54
2023-02-13T07:00:05.660Z,82.65
2023-02-13T07:02:34.319Z,82.48
2023-02-13T07:05:03.314Z,82.19
2023-02-13T07:07:34.044Z,82.26
2023-02-13T07:10:03.058Z,82.39
2023-02-13T07:12:32.369Z,82.41
2023-02-13T07:14:59.264Z,82.52
2023-02-13T07:17:27.104Z,82.58
2023-02-13T07:19:55.049Z,82.70
2023-02-13T07:22:25.205Z,82.51
2023-02-13T07:24:53.429Z,82.76
2023-02-13T07:27:21.347Z,82.87
2023-02-13T07:29:48.286Z,82.84
2023-02-13T07:32:15.706Z,82.54
2023-02-13T07:34:55.988Z,82.34
2023-02-13T07:37:28.445Z,82.24
2023-02-13T07:39:55.276Z,81.82
2023-02-13T07:42:22.164Z,81.27
2023-02-13T07:44:51.970Z,80.13
2023-02-13T07:47:20.338Z,79.19
2023-02-13T07:49:50.736Z,79.16
2023-02-13T07:52:21.015Z,78.90
2023-02-13T07:54:52.406Z,77.67
2023-02-13T07:57:20.490Z,77.15
2023-02-13T07:59:49.155Z,76.96
2023-02-13T08:02:16.353Z,77.12
2023-02-13T08:04:46.012Z,76.78
2023-02-13T08:07:13.837Z,77.14
2023-02-13T08:09:59.859Z,76.79
2023-02-13T08:12:33.042Z,76.70
2023-02-13T08:14:59.985Z,77.23
2023-02-13T08:17:39.443Z,77.22
2023-02-13T08:20:09.935Z,76.62
2023-02-13T08:22:37.229Z,76.79
2023-02-13T08:25:16.116Z,76.47
2023-02-13T08:27:49.148Z,75.76
2023-02-13T08:30:22.624Z,74.62
2023-02-13T08:32:54.329Z,74.40
2023-02-13T08:35:22.232Z,74.28
2023-02-13T08:37:49.433Z,74.72
2023-02-13T08:40:16.359Z,74.02
2023-02-13T08:42:43.177Z,73.47
2023-02-13T08:45:11.349Z,73.13
2023-02-13T08:47:40.115Z,72.78
2023-02-13T08:50:07.196Z,72.80
2023-02-13T08:52:36.131Z,72.65
2023-02-13T08:55:04.365Z,72.77
2023-02-13T08:57:31.891Z,72.11
2023-02-13T08:59:59.178Z,71.97
2023-02-13T09:02:26.403Z,71.81
2023-02-13T09:04:53.641Z,71.55
2023-02-13T09:07:21.258Z,71.44
2023-02-13T09:09:48.924Z,70.97
2023-02-13T09:12:15.772Z,71.03
2023-02-13T09:14:44.055Z,71.17
2023-02-13T09:17:11.136Z,71.83
2023-02-13T09:19:38.010Z,71.51
2023-02-13T09:22:04.777Z,71.14
2023-02-13T09:24:31.935Z,70.19
2023-02-13T09:26:59.892Z,69.23
2023-02-13T09:29:30.660Z,68.96
2023-02-13T09:31:57.695Z,68.49
2023-02-13T09:34:25.555Z,68.17
2023-02-13T09:36:54.495Z,66.84
2023-02-13T09:39:21.540Z,66.50
2023-02-13T09:41:50.000Z,66.70
2023-02-13T09:44:34.175Z,67.36
2023-02-13T09:47:30.241Z,66.96
2023-02-13T09:53:43.208Z,67.11
2023-02-13T09:56:37.909Z,67.39
2023-02-13T09:59:38.978Z,67.68
2023-02-13T10:02:36.625Z,67.75
2023-02-13T10:06:05.335Z,68.31
2023-02-13T10:08:48.646Z,69.56
2023-02-13T10:12:06.602Z,70.27
2023-02-13T10:14:52.161Z,70.72
2023-02-13T10:17:58.387Z,71.20
2023-02-13T10:20:32.410Z,70.91
2023-02-13T10:23:07.712Z,71.43
2023-02-13T10:25:53.171Z,71.51
2023-02-13T10:28:30.296Z,72.43
2023-02-13T10:30:59.361Z,72.64
2023-02-13T10:33:29.367Z,72.69
2023-02-13T10:36:08.552Z,73.10
2023-02-13T10:38:51.003Z,73.88
2023-02-13T10:41:52.745Z,74.21
2023-02-13T10:44:23.190Z,74.76
2023-02-13T10:46:59.678Z,74.55
2023-02-13T10:49:38.561Z,73.99
2023-02-13T10:52:27.120Z,73.83
2023-02-13T10:55:23.532Z,73.81
2023-02-13T10:58:22.162Z,74.13
2023-02-13T11:01:05.219Z,72.95
2023-02-13T11:03:33.598Z,71.89
2023-02-13T11:06:01.234Z,71.52
2023-02-13T11:08:30.623Z,70.72
2023-02-13T11:10:57.430Z,70.85
2023-02-13T11:13:26.133Z,69.76
2023-02-13T11:16:11.567Z,70.25
2023-02-13T11:18:43.664Z,70.23
2023-02-13T11:21:13.961Z,69.62
2023-02-13T11:23:43.297Z,69.10
2023-02-13T11:26:32.573Z,68.33
2023-02-13T11:29:01.229Z,68.23
2023-02-13T11:31:34.166Z,67.28
2023-02-13T11:34:26.610Z,67.41
2023-02-13T11:37:25.494Z,68.45
2023-02-13T11:39:56.570Z,68.87
2023-02-13T11:42:27.706Z,69.44
2023-02-13T11:44:58.049Z,68.57
2023-02-13T11:47:39.220Z,68.27
2023-02-13T11:50:27.416Z,68.55
2023-02-13T11:53:02.494Z,69.06
2023-02-13T11:55:32.960Z,68.89
2023-02-13T11:58:00.106Z,69.10
2023-02-13T12:00:33.126Z,68.36
2023-02-13T12:03:00.183Z,68.46
2023-02-13T12:05:28.043Z,67.83
2023-02-13T12:07:56.774Z,67.46
2023-02-13T12:10:28.823Z,67.30
2023-02-13T12:13:15.122Z,67.59
2023-02-13T12:15:41.805Z,68.29
2023-02-13T12:18:19.068Z,67.76
2023-02-13T12:21:01.103Z,66.20
2023-02-13T12:24:01.281Z,64.78
2023-02-13T12:26:42.135Z,64.78
2023-02-13T12:29:43.799Z,65.31
2023-02-13T12:32:20.507Z,65.16
2023-02-13T12:35:02.135Z,64.60
2023-02-13T12:37:44.047Z,63.00
2023-02-13T12:40:19.832Z,63.12
2023-02-13T12:43:03.275Z,62.64
2023-02-13T12:45:32.987Z,62.46
2023-02-13T12:48:33.396Z,61.64
2023-02-13T12:51:06.276Z,61.47
2023-02-13T12:53:39.616Z,61.89
2023-02-13T12:56:25.098Z,62.70
2023-02-13T12:58:55.936Z,63.78
2023-02-13T13:01:34.765Z,64.86
2023-02-13T13:04:27.554Z,65.41
2023-02-13T13:07:03.365Z,65.84
2023-02-13T13:09:48.411Z,66.13
2023-02-13T13:12:29.858Z,66.87
